Time;durP1;ratioP1;P1;durP2;ratioP2;P2;SDS_P1;SDS_P2;PMS_P1;PMS_P2;Temp;Humidity;BMP_temperature;BMP_pressure;BME280_temperature;BME280_humidity;BME280_pressure;Samples;Min_cycle;Max_cycle;Signal;HPM_P1;HPM_P2
2021/12/28 00:02:39;;;;;;;;;;;;;;;-0.41;84.56;99940.22;5596996;31;33726;-82
2021/12/28 00:05:42;;;;;;;;;;;;;;;-0.43;83.17;99942.06;5600683;31;33651;-82
2021/12/28 00:08:45;;;;;;;;;;;;;;;-0.43;84.11;99929.06;5598844;31;36028;-82
2021/12/28 00:11:48;;;;;;;;;;;;;;;-0.42;83.07;99928.16;5597237;31;33797;-82
2021/12/28 00:15:05;;;;;;;;;;;;;;;-0.41;83.75;99924.63;5598333;31;33699;-82
2021/12/28 00:18:08;;;;;;;;;;;;;;;-0.42;82.53;99930.75;5596682;31;33559;-82
2021/12/28 00:21:10;;;;;;;;;;;;;;;-0.39;82.43;99930.56;5596741;31;33844;-81
2021/12/28 00:24:16;;;;;;;;;;;;;;;-0.43;82.99;99920.41;5598508;31;34493;-81
2021/12/28 00:27:18;;;;;;;;;;;;;;;-0.45;83.42;99917.91;5603630;31;33739;-81
2021/12/28 00:30:21;;;;;;;;;;;;;;;-0.46;83.21;99924.03;5603867;31;34808;-82
2021/12/28 00:33:24;;;;;;;;;;;;;;;-0.40;83.88;99930.66;5598660;31;34703;-82
2021/12/28 00:36:33;;;;;;;;;;;;;;;-0.49;82.95;99921.56;5596219;31;33628;-82
2021/12/28 00:39:35;;;;;;;;;;;;;;;-0.52;82.10;99922.59;5597064;31;33698;-82
2021/12/28 00:42:38;;;;;;;;;;;;;;;-0.49;81.75;99921.56;5596874;31;34745;-82
2021/12/28 00:45:40;;;;;;;;;;;;;;;-0.48;81.78;99924.13;5596392;31;34126;-82
2021/12/28 00:48:43;;;;;;;;;;;;;;;-0.49;82.32;99927.63;5596415;31;33699;-82
2021/12/28 00:51:47;;;;;;;;;;;;;;;-0.49;84.20;99931.97;5596507;31;33853;-82
2021/12/28 00:54:50;;;;;;;;;;;;;;;-0.54;85.16;99933.97;5597772;31;33388;-82
2021/12/28 00:57:53;;;;;;;;;;;;;;;-0.48;85.88;99933.66;5599604;31;33644;-82
2021/12/28 01:00:56;;;;;;;;;;;;;;;-0.57;87.66;99935.00;5596378;31;33648;-82
2021/12/28 01:03:58;;;;;;;;;;;;;;;-0.63;88.56;99928.34;5595828;31;33624;-82
2021/12/28 01:07:02;;;;;;;;;;;;;;;-0.59;89.41;99926.44;5595969;31;33034;-82
2021/12/28 01:10:07;;;;;;;;;;;;;;;-0.59;90.07;99925.56;5595899;31;33719;-82
2021/12/28 01:13:11;;;;;;;;;;;;;;;-0.76;91.79;99929.03;5597589;31;33815;-82
2021/12/28 01:16:18;;;;;;;;;;;;;;;-0.75;92.87;99926.38;5598210;31;34318;-82
2021/12/28 01:19:21;;;;;;;;;;;;;;;-0.77;93.60;99925.59;5601273;31;33797;-82
2021/12/28 01:22:24;;;;;;;;;;;;;;;-0.77;94.25;99933.41;5598790;31;33259;-83
2021/12/28 01:25:29;;;;;;;;;;;;;;;-0.73;93.59;99924.50;5596440;31;33839;-82
2021/12/28 01:28:33;;;;;;;;;;;;;;;-0.74;94.31;99922.88;5596311;31;33567;-82
2021/12/28 01:31:37;;;;;;;;;;;;;;;-0.79;94.98;99924.84;5594734;31;33423;-82
2021/12/28 01:34:41;;;;;;;;;;;;;;;-0.86;97.03;99918.28;5597611;31;33558;-82
2021/12/28 01:37:44;;;;;;;;;;;;;;;-0.83;97.51;99923.31;5595800;31;33319;-82
2021/12/28 01:40:48;;;;;;;;;;;;;;;-0.86;98.06;99913.09;5595859;31;33612;-82
2021/12/28 01:43:54;;;;;;;;;;;;;;;-0.88;98.69;99914.91;5596009;31;33436;-82
2021/12/28 01:46:58;;;;;;;;;;;;;;;-0.90;98.95;99906.38;5595613;31;33405;-82
2021/12/28 01:50:01;;;;;;;;;;;;;;;-0.91;98.35;99915.06;5595809;31;33188;-82
2021/12/28 01:53:04;;;;;;;;;;;;;;;-0.96;98.88;99905.75;5595672;31;33111;-82
2021/12/28 01:56:09;;;;;;;;;;;;;;;-0.94;99.03;99901.31;5595903;31;33285;-82
2021/12/28 01:59:13;;;;;;;;;;;;;;;-1.00;99.13;99904.22;5597453;31;33937;-82
2021/12/28 02:02:18;;;;;;;;;;;;;;;-1.13;99.53;99896.22;5598099;31;33860;-82
2021/12/28 02:05:22;;;;;;;;;;;;;;;-1.16;100.00;99895.50;5599665;31;33774;-82
2021/12/28 02:08:24;;;;;;;;;;;;;;;-1.12;100.00;99897.06;5602569;31;34612;-81
2021/12/28 02:11:27;;;;;;;;;;;;;;;-1.09;100.00;99904.69;5597932;31;34233;-81
2021/12/28 02:14:30;;;;;;;;;;;;;;;-1.12;100.00;99907.44;5598446;31;33741;-81
2021/12/28 02:17:33;;;;;;;;;;;;;;;-1.04;100.00;99905.28;5598147;31;33157;-81
2021/12/28 02:20:37;;;;;;;;;;;;;;;-0.98;100.00;99909.34;5598017;31;33844;-81
2021/12/28 02:23:39;;;;;;;;;;;;;;;-0.89;100.00;99900.25;5597752;31;34747;-81
2021/12/28 02:26:42;;;;;;;;;;;;;;;-0.90;100.00;99901.16;5598010;31;33392;-81
2021/12/28 02:29:44;;;;;;;;;;;;;;;-0.97;100.00;99896.28;5597433;31;33488;-81
2021/12/28 02:32:48;;;;;;;;;;;;;;;-0.93;100.00;99903.00;5599674;31;33661;-81
2021/12/28 02:35:52;;;;;;;;;;;;;;;-0.82;98.73;99899.00;5605377;31;35025;-81
2021/12/28 02:38:54;;;;;;;;;;;;;;;-0.90;99.13;99885.59;5600408;31;34748;-81
2021/12/28 02:41:58;;;;;;;;;;;;;;;-0.97;98.60;99878.13;5596981;31;33935;-81
2021/12/28 02:45:07;;;;;;;;;;;;;;;-1.03;99.40;99870.63;5597303;31;33257;-81
2021/12/28 02:48:12;;;;;;;;;;;;;;;-1.02;99.26;99877.50;5597643;31;33544;-81
2021/12/28 02:51:16;;;;;;;;;;;;;;;-1.05;99.18;99882.84;5597650;31;34232;-81
2021/12/28 02:54:20;;;;;;;;;;;;;;;-0.96;98.14;99876.34;5598817;31;34339;-81
2021/12/28 02:57:24;;;;;;;;;;;;;;;-0.94;97.17;99870.16;5597178;31;33901;-81
2021/12/28 03:00:29;;;;;;;;;;;;;;;-1.09;98.87;99865.75;5598430;31;33504;-81
2021/12/28 03:03:33;;;;;;;;;;;;;;;-1.06;98.37;99862.97;5597274;31;33746;-81
2021/12/28 03:06:41;;;;;;;;;;;;;;;-1.04;98.82;99868.12;5597805;31;34473;-81
2021/12/28 03:09:44;;;;;;;;;;;;;;;-1.11;99.93;99875.38;5599558;31;33743;-81
2021/12/28 03:12:47;;;;;;;;;;;;;;;-1.11;100.00;99883.16;5601744;31;33894;-81
2021/12/28 03:15:49;;;;;;;;;;;;;;;-1.16;100.00;99882.53;5597655;31;33353;-81
2021/12/28 03:18:54;;;;;;;;;;;;;;;-1.16;100.00;99875.59;5600335;31;34132;-81
2021/12/28 03:21:57;;;;;;;;;;;;;;;-1.16;100.00;99885.13;5597089;31;34169;-81
2021/12/28 03:25:03;;;;;;;;;;;;;;;-1.18;100.00;99881.78;5598536;31;33641;-81
2021/12/28 03:28:06;;;;;;;;;;;;;;;-1.16;100.00;99869.56;5598614;31;33442;-82
2021/12/28 03:31:11;;;;;;;;;;;;;;;-1.19;100.00;99864.53;5596589;31;33726;-82
2021/12/28 03:34:14;;;;;;;;;;;;;;;-1.09;100.00;99870.94;5596729;31;33885;-82
2021/12/28 03:37:18;;;;;;;;;;;;;;;-1.06;100.00;99880.34;5597080;31;33730;-82
2021/12/28 03:40:21;;;;;;;;;;;;;;;-1.11;100.00;99862.38;5598789;31;34026;-81
2021/12/28 03:43:23;;;;;;;;;;;;;;;-1.14;100.00;99867.72;5597912;31;34175;-81
2021/12/28 03:46:26;;;;;;;;;;;;;;;-1.26;100.00;99870.03;5597703;31;33373;-81
2021/12/28 03:49:29;;;;;;;;;;;;;;;-1.26;100.00;99879.56;5604171;31;33676;-81
2021/12/28 03:52:34;;;;;;;;;;;;;;;-1.31;100.00;99882.41;5598140;31;33725;-81
2021/12/28 03:55:37;;;;;;;;;;;;;;;-1.15;100.00;99871.22;5596815;31;33366;-81
2021/12/28 03:58:41;;;;;;;;;;;;;;;-1.26;100.00;99880.41;5596788;31;33555;-81
2021/12/28 04:01:43;;;;;;;;;;;;;;;-1.27;100.00;99883.91;5596031;31;33942;-81
2021/12/28 04:04:47;;;;;;;;;;;;;;;-1.34;100.00;99886.87;5597254;31;33813;-81
2021/12/28 04:07:55;;;;;;;;;;;;;;;-1.28;100.00;99879.63;5596912;31;33554;-81
2021/12/28 04:14:19;;;;;;;;;;;;;;;-1.43;100.00;99883.00;5597091;31;33034;-82
2021/12/28 04:17:22;;;;;;;;;;;;;;;-1.33;100.00;99881.63;5597607;31;33943;-82
2021/12/28 04:20:25;;;;;;;;;;;;;;;-1.43;100.00;99877.81;5597240;31;32927;-82
2021/12/28 04:23:30;;;;;;;;;;;;;;;-1.42;100.00;99879.50;5598931;31;34294;-82
2021/12/28 04:26:32;;;;;;;;;;;;;;;-1.38;100.00;99881.00;5597035;31;34372;-81
2021/12/28 04:29:35;;;;;;;;;;;;;;;-1.44;100.00;99878.72;5599371;31;33595;-83
2021/12/28 04:32:38;;;;;;;;;;;;;;;-1.40;100.00;99882.81;5597807;31;34746;-81
2021/12/28 04:35:41;;;;;;;;;;;;;;;-1.42;100.00;99879.50;5596987;31;34144;-81
2021/12/28 04:38:44;;;;;;;;;;;;;;;-1.44;100.00;99876.94;5600314;31;33498;-81
2021/12/28 04:41:49;;;;;;;;;;;;;;;-1.33;100.00;99884.22;5599415;31;33495;-81
2021/12/28 04:44:52;;;;;;;;;;;;;;;-1.33;100.00;99889.41;5599246;31;33857;-81
2021/12/28 04:47:55;;;;;;;;;;;;;;;-1.30;100.00;99886.69;5601379;31;33647;-81
2021/12/28 04:50:57;;;;;;;;;;;;;;;-1.39;100.00;99884.50;5600832;31;33929;-81
2021/12/28 04:54:06;;;;;;;;;;;;;;;-1.29;100.00;99879.72;5600262;31;33614;-82
2021/12/28 04:57:08;;;;;;;;;;;;;;;-1.35;100.00;99885.22;5598743;31;34484;-82
2021/12/28 05:00:13;;;;;;;;;;;;;;;-1.32;100.00;99883.31;5600604;31;33472;-82
2021/12/28 05:03:16;;;;;;;;;;;;;;;-1.27;100.00;99876.12;5600559;31;33811;-81
2021/12/28 05:06:19;;;;;;;;;;;;;;;-1.46;100.00;99873.59;5599239;31;33630;-81
2021/12/28 05:09:22;;;;;;;;;;;;;;;-1.44;100.00;99870.94;5596921;31;33606;-81
2021/12/28 05:12:25;;;;;;;;;;;;;;;-1.56;100.00;99878.41;5598103;31;33930;-82
2021/12/28 05:15:28;;;;;;;;;;;;;;;-1.52;100.00;99875.66;5597585;31;34490;-82
2021/12/28 05:18:30;;;;;;;;;;;;;;;-1.50;100.00;99879.00;5596120;31;33435;-82
2021/12/28 05:21:34;;;;;;;;;;;;;;;-1.45;100.00;99885.66;5596060;31;33537;-82
2021/12/28 05:24:37;;;;;;;;;;;;;;;-1.64;100.00;99885.72;5595442;31;33765;-81
2021/12/28 05:27:39;;;;;;;;;;;;;;;-1.59;100.00;99877.72;5597195;31;33824;-81
2021/12/28 05:30:49;;;;;;;;;;;;;;;-1.59;100.00;99888.91;5595623;31;33612;-82
2021/12/28 05:33:53;;;;;;;;;;;;;;;-1.66;100.00;99887.53;5595075;31;34491;-81
2021/12/28 05:37:00;;;;;;;;;;;;;;;-1.56;100.00;99899.16;5595940;31;33833;-81
2021/12/28 05:40:06;;;;;;;;;;;;;;;-1.60;100.00;99887.25;5599093;31;34599;-81
2021/12/28 05:43:09;;;;;;;;;;;;;;;-1.61;100.00;99885.56;5598638;31;34419;-81
2021/12/28 05:46:11;;;;;;;;;;;;;;;-1.51;100.00;99890.28;5597949;31;34074;-81
2021/12/28 05:49:17;;;;;;;;;;;;;;;-1.54;100.00;99887.88;5598925;31;34540;-81
2021/12/28 05:52:20;;;;;;;;;;;;;;;-1.45;100.00;99895.19;5600713;31;33735;-81
2021/12/28 05:55:26;;;;;;;;;;;;;;;-1.50;100.00;99897.16;5598600;31;34012;-81
2021/12/28 05:58:28;;;;;;;;;;;;;;;-1.52;100.00;99905.03;5595497;31;33512;-81
2021/12/28 06:01:33;;;;;;;;;;;;;;;-1.51;100.00;99905.84;5595234;31;33583;-81
2021/12/28 06:04:37;;;;;;;;;;;;;;;-1.66;100.00;99908.28;5596555;31;33593;-81
2021/12/28 06:07:40;;;;;;;;;;;;;;;-1.60;100.00;99913.19;5596811;31;33565;-81
2021/12/28 06:10:42;;;;;;;;;;;;;;;-1.58;100.00;99911.34;5595755;31;34390;-81
2021/12/28 06:13:46;;;;;;;;;;;;;;;-1.49;100.00;99919.59;5594767;31;34245;-84
2021/12/28 06:16:51;;;;;;;;;;;;;;;-1.49;100.00;99910.09;5596266;31;33437;-82
2021/12/28 06:19:53;;;;;;;;;;;;;;;-1.52;100.00;99915.41;5594665;31;33944;-82
2021/12/28 06:22:56;;;;;;;;;;;;;;;-1.57;100.00;99922.56;5595849;31;33656;-82
2021/12/28 06:25:58;;;;;;;;;;;;;;;-1.55;100.00;99925.94;5595604;31;33745;-82
2021/12/28 06:29:03;;;;;;;;;;;;;;;-1.54;100.00;99938.00;5594808;31;33811;-83
2021/12/28 06:32:06;;;;;;;;;;;;;;;-1.65;100.00;99935.91;5594792;31;33796;-82
2021/12/28 06:35:09;;;;;;;;;;;;;;;-1.54;100.00;99942.34;5594488;31;33322;-81
2021/12/28 06:38:19;;;;;;;;;;;;;;;-1.60;100.00;99938.28;5595823;31;33825;-81
2021/12/28 06:41:25;;;;;;;;;;;;;;;-1.48;100.00;99944.62;5595763;31;33765;-81
2021/12/28 06:44:27;;;;;;;;;;;;;;;-1.46;100.00;99943.66;5596620;31;33322;-81
2021/12/28 06:47:30;;;;;;;;;;;;;;;-1.51;100.00;99937.00;5596855;31;34025;-84
2021/12/28 06:50:32;;;;;;;;;;;;;;;-1.43;100.00;99921.94;5598753;31;33923;-82
2021/12/28 06:53:36;;;;;;;;;;;;;;;-1.37;100.00;99923.38;5598456;31;33626;-83
2021/12/28 06:56:38;;;;;;;;;;;;;;;-1.47;100.00;99933.34;5596315;31;33598;-82
2021/12/28 06:59:45;;;;;;;;;;;;;;;-1.42;100.00;99936.59;5597512;31;33234;-82
2021/12/28 07:02:48;;;;;;;;;;;;;;;-1.42;100.00;99934.81;5597218;31;34621;-82
2021/12/28 07:05:51;;;;;;;;;;;;;;;-1.49;100.00;99935.19;5597306;31;33328;-83
2021/12/28 07:08:53;;;;;;;;;;;;;;;-1.49;100.00;99945.56;5597992;31;34106;-82
2021/12/28 07:11:56;;;;;;;;;;;;;;;-1.40;100.00;99934.72;5597433;31;33527;-82
2021/12/28 07:15:01;;;;;;;;;;;;;;;-1.46;100.00;99941.06;5598516;31;33838;-83
2021/12/28 07:18:06;;;;;;;;;;;;;;;-1.43;100.00;99934.91;5597500;31;34016;-82
2021/12/28 07:21:08;;;;;;;;;;;;;;;-1.46;100.00;99941.06;5599184;31;33987;-82
2021/12/28 07:24:13;;;;;;;;;;;;;;;-1.35;100.00;99952.72;5599166;31;33818;-81
2021/12/28 07:27:25;;;;;;;;;;;;;;;-1.40;100.00;99955.50;5597265;31;33739;-81
2021/12/28 07:30:30;;;;;;;;;;;;;;;-1.42;100.00;99963.34;5605346;31;33535;-82
2021/12/28 07:33:32;;;;;;;;;;;;;;;-1.40;100.00;99971.06;5602470;31;34761;-82
2021/12/28 07:36:35;;;;;;;;;;;;;;;-1.33;100.00;99966.41;5596330;31;33701;-83
2021/12/28 07:39:37;;;;;;;;;;;;;;;-1.27;100.00;99960.94;5596244;31;33647;-82
2021/12/28 07:42:41;;;;;;;;;;;;;;;-1.46;100.00;99966.19;5597818;31;33319;-82
2021/12/28 07:45:45;;;;;;;;;;;;;;;-1.44;100.00;99970.37;5596417;31;34452;-83
2021/12/28 07:48:48;;;;;;;;;;;;;;;-1.39;100.00;99967.56;5597107;31;34376;-82
2021/12/28 07:51:50;;;;;;;;;;;;;;;-1.46;100.00;99961.81;5596744;31;33956;-83
2021/12/28 07:54:53;;;;;;;;;;;;;;;-1.36;100.00;99962.22;5596041;31;34172;-83
2021/12/28 07:57:55;;;;;;;;;;;;;;;-1.20;100.00;99961.50;5596833;31;33648;-82
2021/12/28 08:01:00;;;;;;;;;;;;;;;-1.27;100.00;99956.59;5600151;31;34007;-81
2021/12/28 08:04:04;;;;;;;;;;;;;;;-1.13;100.00;99963.72;5597422;31;33677;-83
2021/12/28 08:07:06;;;;;;;;;;;;;;;-1.22;100.00;99973.72;5596155;31;34593;-85
2021/12/28 08:10:10;;;;;;;;;;;;;;;-1.28;100.00;99967.06;5596114;31;34951;-84
2021/12/28 08:13:17;;;;;;;;;;;;;;;-1.30;100.00;99961.94;5596648;31;35039;-84
2021/12/28 08:16:20;;;;;;;;;;;;;;;-1.26;100.00;99957.44;5595804;31;34335;-84
2021/12/28 08:19:23;;;;;;;;;;;;;;;-1.20;100.00;99966.69;5596014;31;34064;-83
2021/12/28 08:22:26;;;;;;;;;;;;;;;-1.34;100.00;99965.59;5597336;31;34341;-83
2021/12/28 08:25:29;;;;;;;;;;;;;;;-1.26;100.00;99958.28;5598575;31;34063;-83
2021/12/28 08:28:32;;;;;;;;;;;;;;;-1.20;100.00;99956.31;5598786;31;34416;-83
2021/12/28 08:31:40;;;;;;;;;;;;;;;-1.05;100.00;99957.31;5601483;31;34670;-83
2021/12/28 08:34:43;;;;;;;;;;;;;;;-1.02;100.00;99955.41;5597571;31;34137;-84
2021/12/28 08:37:45;;;;;;;;;;;;;;;-1.14;100.00;99958.59;5598602;31;34073;-84
2021/12/28 08:40:48;;;;;;;;;;;;;;;-1.02;100.00;99954.56;5596663;31;33891;-83
2021/12/28 08:43:50;;;;;;;;;;;;;;;-1.01;100.00;99959.69;5597638;31;33857;-83
2021/12/28 08:46:53;;;;;;;;;;;;;;;-1.07;100.00;99957.41;5597673;31;34733;-83
2021/12/28 08:49:57;;;;;;;;;;;;;;;-1.04;100.00;99962.41;5596973;31;33123;-83
2021/12/28 08:53:01;;;;;;;;;;;;;;;-0.90;100.00;99963.50;5597269;31;33583;-83
2021/12/28 08:56:03;;;;;;;;;;;;;;;-0.83;100.00;99965.72;5598250;31;34224;-83
2021/12/28 08:59:06;;;;;;;;;;;;;;;-0.85;100.00;99961.53;5598130;31;33691;-84
2021/12/28 09:02:09;;;;;;;;;;;;;;;-0.87;100.00;99968.56;5597602;31;33299;-84
2021/12/28 09:05:13;;;;;;;;;;;;;;;-0.94;100.00;99966.25;5596239;31;34787;-83
2021/12/28 09:08:19;;;;;;;;;;;;;;;-1.04;100.00;99967.59;5595073;31;33544;-84
2021/12/28 09:11:21;;;;;;;;;;;;;;;-0.96;100.00;99968.06;5597195;31;33714;-83
2021/12/28 09:14:24;;;;;;;;;;;;;;;-0.85;100.00;99971.91;5597161;31;33536;-83
2021/12/28 09:17:27;;;;;;;;;;;;;;;-0.98;100.00;99964.72;5600035;31;33545;-83
2021/12/28 09:20:30;;;;;;;;;;;;;;;-0.93;100.00;99960.12;5602934;31;33877;-83
2021/12/28 09:23:41;;;;;;;;;;;;;;;-0.82;100.00;99951.81;5603799;31;33059;-82
2021/12/28 09:27:06;;;;;;;;;;;;;;;-0.78;100.00;99957.69;5601789;31;34723;-81
2021/12/28 09:30:10;;;;;;;;;;;;;;;-0.79;100.00;99940.44;5601698;31;33889;-82
2021/12/28 09:33:13;;;;;;;;;;;;;;;-0.89;100.00;99934.84;5595975;31;33585;-82
2021/12/28 09:36:16;;;;;;;;;;;;;;;-0.82;100.00;99936.22;5595766;31;33864;-82
2021/12/28 09:39:22;;;;;;;;;;;;;;;-0.79;100.00;99935.22;5597113;31;33961;-82
2021/12/28 09:42:26;;;;;;;;;;;;;;;-0.87;100.00;99937.38;5596661;31;33849;-83
2021/12/28 09:45:28;;;;;;;;;;;;;;;-0.78;100.00;99944.72;5595246;31;34046;-81
2021/12/28 09:48:32;;;;;;;;;;;;;;;-0.79;100.00;99943.03;5595740;31;33232;-81
2021/12/28 09:51:34;;;;;;;;;;;;;;;-0.64;100.00;99949.19;5596623;31;34353;-82
2021/12/28 09:54:37;;;;;;;;;;;;;;;-0.59;100.00;99951.56;5595207;31;33612;-82
2021/12/28 09:57:40;;;;;;;;;;;;;;;-0.55;100.00;99947.91;5600714;31;33425;-82
2021/12/28 10:00:44;;;;;;;;;;;;;;;-0.56;100.00;99954.84;5596842;31;33779;-82
2021/12/28 10:03:48;;;;;;;;;;;;;;;-0.49;100.00;99957.97;5595982;31;33922;-82
2021/12/28 10:06:50;;;;;;;;;;;;;;;-0.59;100.00;99951.56;5595481;31;33642;-82
2021/12/28 10:09:53;;;;;;;;;;;;;;;-0.66;100.00;99946.69;5596553;31;33473;-81
2021/12/28 10:12:58;;;;;;;;;;;;;;;-0.88;100.00;99943.50;5596174;31;34539;-82
2021/12/28 10:16:03;;;;;;;;;;;;;;;-0.82;100.00;99943.16;5593873;31;33656;-81
2021/12/28 10:19:38;;;;;;;;;;;;;;;-0.73;100.00;99944.47;5596580;31;33673;-82
2021/12/28 10:22:47;;;;;;;;;;;;;;;-0.80;100.00;99938.75;5599915;31;33581;-82
2021/12/28 10:25:53;;;;;;;;;;;;;;;-0.88;100.00;99935.69;5599470;31;35937;-81
2021/12/28 10:28:55;;;;;;;;;;;;;;;-0.87;100.00;99927.00;5597809;31;34982;-81
2021/12/28 10:32:19;;;;;;;;;;;;;;;-0.72;100.00;99931.41;5597463;31;33776;-81
2021/12/28 10:35:23;;;;;;;;;;;;;;;-0.56;100.00;99925.41;5596782;31;33545;-82
2021/12/28 10:38:27;;;;;;;;;;;;;;;-0.67;100.00;99924.22;5597741;31;33394;-81
2021/12/28 10:41:30;;;;;;;;;;;;;;;-0.65;100.00;99919.78;5598385;31;33890;-82
2021/12/28 10:44:52;;;;;;;;;;;;;;;-0.60;100.00;99918.69;5598019;31;35226;-82
2021/12/28 10:47:55;;;;;;;;;;;;;;;-0.77;100.00;99917.81;5598021;31;33150;-81
2021/12/28 10:51:13;;;;;;;;;;;;;;;-0.55;100.00;99912.34;5598490;31;33833;-81
2021/12/28 10:54:16;;;;;;;;;;;;;;;-0.51;100.00;99913.03;5598040;31;34646;-81
2021/12/28 10:57:18;;;;;;;;;;;;;;;-0.67;100.00;99913.81;5597746;31;33835;-81
2021/12/28 11:00:27;;;;;;;;;;;;;;;-0.46;100.00;99903.22;5599405;31;34181;-81
2021/12/28 11:03:34;;;;;;;;;;;;;;;-0.50;100.00;99899.09;5598142;31;34372;-82
2021/12/28 11:06:44;;;;;;;;;;;;;;;-0.37;100.00;99905.34;5597556;31;33354;-83
2021/12/28 11:09:47;;;;;;;;;;;;;;;-0.55;100.00;99903.72;5598178;31;33696;-82
2021/12/28 11:12:50;;;;;;;;;;;;;;;-0.57;100.00;99902.94;5603961;31;33740;-83
2021/12/28 11:15:53;;;;;;;;;;;;;;;-0.62;100.00;99898.00;5596800;31;34526;-82
2021/12/28 11:18:57;;;;;;;;;;;;;;;-0.62;100.00;99888.44;5597712;31;33854;-82
2021/12/28 11:22:07;;;;;;;;;;;;;;;-0.43;100.00;99889.22;5596710;31;34140;-83
2021/12/28 11:25:18;;;;;;;;;;;;;;;-0.55;100.00;99885.53;5596352;31;33086;-83
2021/12/28 11:28:22;;;;;;;;;;;;;;;-0.68;100.00;99890.53;5596776;31;33724;-83
2021/12/28 11:31:29;;;;;;;;;;;;;;;-0.85;100.00;99883.59;5597876;31;33190;-83
2021/12/28 11:34:38;;;;;;;;;;;;;;;-0.85;100.00;99878.41;5601235;31;34422;-83
2021/12/28 11:37:41;;;;;;;;;;;;;;;-0.75;100.00;99873.56;5599712;31;32983;-83
2021/12/28 11:40:43;;;;;;;;;;;;;;;-0.66;100.00;99873.94;5598082;31;33405;-83
2021/12/28 11:43:51;;;;;;;;;;;;;;;-0.56;100.00;99873.44;5597799;31;33601;-84
2021/12/28 11:46:58;;;;;;;;;;;;;;;-0.44;100.00;99867.59;5598021;31;33775;-82
2021/12/28 11:50:03;;;;;;;;;;;;;;;-0.69;100.00;99857.66;5597773;31;33682;-82
2021/12/28 11:53:06;;;;;;;;;;;;;;;-0.76;100.00;99845.91;5598035;31;33864;-82
2021/12/28 11:56:10;;;;;;;;;;;;;;;-0.81;100.00;99839.22;5596079;31;33821;-83
2021/12/28 11:59:16;;;;;;;;;;;;;;;-0.80;100.00;99829.66;5597671;31;34203;-83
2021/12/28 12:02:27;;;;;;;;;;;;;;;-0.86;100.00;99824.78;5596786;31;34747;-84
2021/12/28 12:05:30;;;;;;;;;;;;;;;-0.81;100.00;99834.00;5596945;31;33129;-82
2021/12/28 12:08:35;;;;;;;;;;;;;;;-0.73;100.00;99825.78;5598003;31;34162;-82
2021/12/28 12:11:56;;;;;;;;;;;;;;;-0.89;100.00;99815.38;5596872;31;34117;-82
2021/12/28 12:14:58;;;;;;;;;;;;;;;-0.79;100.00;99811.37;5597665;31;33747;-83
2021/12/28 12:18:01;;;;;;;;;;;;;;;-0.86;100.00;99804.00;5595864;31;34040;-82
2021/12/28 12:21:14;;;;;;;;;;;;;;;-0.97;100.00;99802.81;5596462;31;33699;-82
2021/12/28 12:24:34;;;;;;;;;;;;;;;-0.87;100.00;99802.31;5601190;31;33589;-82
2021/12/28 12:27:47;;;;;;;;;;;;;;;-0.86;100.00;99789.25;5596813;31;34367;-82
2021/12/28 12:30:51;;;;;;;;;;;;;;;-0.88;100.00;99782.47;5596249;31;33409;-82
2021/12/28 12:33:55;;;;;;;;;;;;;;;-0.81;100.00;99776.88;5597617;31;34182;-82
2021/12/28 12:37:00;;;;;;;;;;;;;;;-0.85;100.00;99774.53;5597366;31;33742;-82
2021/12/28 12:40:03;;;;;;;;;;;;;;;-0.83;100.00;99772.66;5596496;31;32170;-82
2021/12/28 12:43:09;;;;;;;;;;;;;;;-0.75;100.00;99765.31;5595136;31;33397;-82
2021/12/28 12:46:23;;;;;;;;;;;;;;;-0.81;100.00;99752.62;5597653;31;33696;-82
2021/12/28 12:49:30;;;;;;;;;;;;;;;-0.78;100.00;99757.69;5596650;31;34165;-82
2021/12/28 12:52:34;;;;;;;;;;;;;;;-0.82;100.00;99754.41;5595961;31;33610;-82
2021/12/28 12:55:37;;;;;;;;;;;;;;;-0.89;100.00;99763.44;5597105;31;34361;-82
2021/12/28 12:58:40;;;;;;;;;;;;;;;-0.84;100.00;99760.59;5596604;31;34678;-82
2021/12/28 13:01:47;;;;;;;;;;;;;;;-0.93;100.00;99757.56;5596429;31;32583;-81
2021/12/28 13:04:52;;;;;;;;;;;;;;;-0.88;100.00;99764.28;5595685;31;33638;-83
2021/12/28 13:07:54;;;;;;;;;;;;;;;-0.82;100.00;99767.41;5595395;31;34053;-82
2021/12/28 13:10:57;;;;;;;;;;;;;;;-0.77;100.00;99767.16;5595737;31;33658;-81
2021/12/28 13:14:05;;;;;;;;;;;;;;;-0.89;100.00;99762.59;5597161;31;33520;-81
2021/12/28 13:17:18;;;;;;;;;;;;;;;-0.85;100.00;99767.56;5597286;31;33428;-81
2021/12/28 13:20:26;;;;;;;;;;;;;;;-0.81;100.00;99766.47;5596310;31;33903;-81
2021/12/28 13:23:31;;;;;;;;;;;;;;;-0.73;100.00;99784.22;5596963;31;33733;-82
2021/12/28 13:26:51;;;;;;;;;;;;;;;-0.82;100.00;99776.94;5595766;31;33464;-82
2021/12/28 13:29:54;;;;;;;;;;;;;;;-0.80;100.00;99773.34;5595316;31;33806;-82
2021/12/28 13:32:57;;;;;;;;;;;;;;;-0.96;100.00;99773.28;5596175;31;33516;-81
2021/12/28 13:36:01;;;;;;;;;;;;;;;-0.88;100.00;99769.47;5597360;31;33849;-81
2021/12/28 13:39:04;;;;;;;;;;;;;;;-0.85;100.00;99779.72;5596411;31;33944;-82
2021/12/28 13:42:07;;;;;;;;;;;;;;;-0.73;100.00;99779.03;5595282;31;35881;-82
2021/12/28 13:45:11;;;;;;;;;;;;;;;-0.93;100.00;99767.94;5596468;31;33934;-82
2021/12/28 13:48:14;;;;;;;;;;;;;;;-0.97;100.00;99766.47;5598961;31;33972;-83
2021/12/28 13:51:18;;;;;;;;;;;;;;;-0.96;100.00;99767.28;5601623;31;34780;-82
2021/12/28 13:54:23;;;;;;;;;;;;;;;-0.94;100.00;99763.66;5595289;31;33380;-82
2021/12/28 13:57:27;;;;;;;;;;;;;;;-0.97;100.00;99774.25;5594995;31;34159;-84
2021/12/28 14:00:38;;;;;;;;;;;;;;;-0.93;100.00;99767.94;5594325;31;33504;-83
2021/12/28 14:03:42;;;;;;;;;;;;;;;-0.99;100.00;99765.69;5595611;31;34271;-82
2021/12/28 14:06:45;;;;;;;;;;;;;;;-0.91;100.00;99767.03;5597503;31;33866;-82
2021/12/28 14:09:51;;;;;;;;;;;;;;;-0.93;100.00;99769.72;5595113;31;34035;-81
2021/12/28 14:13:03;;;;;;;;;;;;;;;-1.01;100.00;99770.13;5594494;31;34696;-82
2021/12/28 14:16:10;;;;;;;;;;;;;;;-0.98;100.00;99756.97;5594696;31;33997;-82
2021/12/28 14:19:15;;;;;;;;;;;;;;;-1.09;100.00;99762.72;5596719;31;34742;-82
2021/12/28 14:22:21;;;;;;;;;;;;;;;-1.08;100.00;99763.59;5595410;31;33582;-82
2021/12/28 14:25:27;;;;;;;;;;;;;;;-1.01;100.00;99764.06;5595215;31;33183;-82
2021/12/28 14:28:30;;;;;;;;;;;;;;;-1.16;100.00;99771.75;5594829;31;33766;-82
2021/12/28 14:31:35;;;;;;;;;;;;;;;-1.10;100.00;99768.84;5594302;31;34178;-81
2021/12/28 14:34:41;;;;;;;;;;;;;;;-1.13;100.00;99771.63;5594270;31;33208;-82
2021/12/28 14:37:44;;;;;;;;;;;;;;;-1.14;100.00;99769.06;5593629;31;33161;-81
2021/12/28 14:40:47;;;;;;;;;;;;;;;-1.18;100.00;99762.38;5594429;31;33588;-81
2021/12/28 14:43:52;;;;;;;;;;;;;;;-1.13;100.00;99765.56;5595040;31;33963;-81
2021/12/28 14:46:55;;;;;;;;;;;;;;;-1.15;100.00;99757.87;5593779;31;34214;-81
2021/12/28 14:50:07;;;;;;;;;;;;;;;-1.11;100.00;99759.38;5594472;31;33205;-81
2021/12/28 14:53:17;;;;;;;;;;;;;;;-1.10;100.00;99750.66;5594136;31;34674;-81
2021/12/28 14:56:29;;;;;;;;;;;;;;;-1.19;100.00;99737.34;5593704;31;33533;-81
2021/12/28 14:59:33;;;;;;;;;;;;;;;-1.22;100.00;99746.09;5593367;31;34793;-81
2021/12/28 15:02:36;;;;;;;;;;;;;;;-1.18;100.00;99744.22;5593956;31;33286;-81
2021/12/28 15:05:43;;;;;;;;;;;;;;;-1.16;100.00;99752.72;5595128;31;34192;-81
2021/12/28 15:08:45;;;;;;;;;;;;;;;-1.15;100.00;99757.00;5596746;31;33745;-81
2021/12/28 15:11:52;;;;;;;;;;;;;;;-1.23;100.00;99748.78;5597753;31;33414;-81
2021/12/28 15:14:54;;;;;;;;;;;;;;;-1.18;100.00;99752.00;5597363;31;33569;-81
2021/12/28 15:17:57;;;;;;;;;;;;;;;-1.12;100.00;99754.25;5598183;31;33682;-81
2021/12/28 15:21:02;;;;;;;;;;;;;;;-1.19;100.00;99750.31;5597132;31;33759;-81
2021/12/28 15:24:05;;;;;;;;;;;;;;;-1.23;100.00;99756.56;5597503;31;34065;-83
2021/12/28 15:27:07;;;;;;;;;;;;;;;-1.20;100.00;99759.03;5597114;31;33974;-81
2021/12/28 15:30:13;;;;;;;;;;;;;;;-1.22;100.00;99760.84;5596872;31;33638;-81
2021/12/28 15:33:16;;;;;;;;;;;;;;;-1.25;100.00;99762.69;5596461;31;33439;-81
2021/12/28 15:36:19;;;;;;;;;;;;;;;-1.20;100.00;99761.62;5596138;31;33563;-81
2021/12/28 15:39:22;;;;;;;;;;;;;;;-1.27;100.00;99761.91;5596881;31;33670;-82
2021/12/28 15:42:25;;;;;;;;;;;;;;;-1.22;100.00;99761.69;5597201;31;33671;-81
2021/12/28 15:45:27;;;;;;;;;;;;;;;-1.20;100.00;99764.22;5597701;31;33604;-81
2021/12/28 15:48:30;;;;;;;;;;;;;;;-1.18;100.00;99762.38;5596338;31;34237;-81
2021/12/28 15:51:33;;;;;;;;;;;;;;;-1.16;100.00;99763.13;5597319;31;34487;-81
2021/12/28 15:54:36;;;;;;;;;;;;;;;-1.12;100.00;99762.88;5598457;31;34862;-81